METAR AND TAF INFORMATION
METAR FOR UBBB
ADDS - METARS form results

(0955 UTC 26 January 2020)
Data provider http://aviationweather.gov/metar/data/
 
METAR text: UBBB 260930Z 32008KT CAVOK 10/04 Q1019 R88/D NOSIG
Conditions at: UBBB (BAKU/BINE ARPT , AZ) observed 0930 UTC 26 January 2020
Temperature: 10.0°C (50°F)
Dewpoint: 4.0°C (39°F) [RH = 66%]
Pressure (altimeter): 30.09 inches Hg (1019.0 mb)
Winds: from the NW (320 degrees) at 9 MPH (8 knots; 4.1 m/s)
Visibility: 6 or more miles (10+ km)
Ceiling: ceiling and visibility are OK
Clouds: unknown
Weather: no significant weather observed at this time

METAR text: UBBB 260900Z 30012KT CAVOK 09/04 Q1019 R88/D NOSIG
Conditions at: UBBB (BAKU/BINE ARPT , AZ) observed 0900 UTC 26 January 2020
Temperature: 9.0°C (48°F)
Dewpoint: 4.0°C (39°F) [RH = 71%]
Pressure (altimeter): 30.09 inches Hg (1019.0 mb)
Winds: from the WNW (300 degrees) at 14 MPH (12 knots; 6.2 m/s)
Visibility: 6 or more miles (10+ km)
Ceiling: ceiling and visibility are OK
Clouds: unknown
Weather: no significant weather observed at this time

Forecast for: COR
Text: TAF COR UBBB 260507Z 2606/2706 VRB04KT CAVOK TX07/2610Z TN03/2702Z
Forecast period: 0600 to 0800 UTC 26 January 2020
Forecast type: FROM: standard forecast or significant change
Winds: variable direction winds at 5 MPH (4 knots; 2.1 m/s)
Visibility: 6 or more miles 10+ km)
Ceiling: unknown
Clouds: missing
Weather: no significant weather forecast for this period
Text: BECMG 2608/2610 32010KT SCT015 SCT100
Forecast period: 0800 UTC 26 January 2020 to 0600 UTC 27 January 2020
Forecast type: BECOMING: Conditions expected to become as follows by 1000 UTC 26 January 2020
Winds: from the NW (320 degrees) at 12 MPH (10 knots; 5.1 m/s)
Visibility: 6 or more miles 10+ km)
Ceiling: at least 12,000 feet AGL
Clouds: scattered clouds at 1500 feet AGL
scattered clouds at 10000 feet AGL
Weather: no significant weather forecast for this period
Text: TEMPO 2622/2706 -RA BKN010 OVC030
Forecast period: 2200 UTC 26 January 2020 to 0600 UTC 27 January 2020
Forecast type: TEMPORARY: The following changes expected for less than half the time period
Visibility: missing
Ceiling: 1000 feet AGL
Clouds: broken clouds at 1000 feet AGL
overcast cloud deck at 3000 feet AGL
Weather: -RA  (light rain)

 AIRPORT MAP

 RUNWAY INFORMATION

 AIRPORT FREQUENCIES
Type APP Name BAKU APP Frequency 129.3 MHZ
Type ATIS Name BAKU ATIS Frequency 126.8 MHZ
Type GCA Name BAKU PRECI Frequency 119.2 MHZ
Type GND Name BAKU GND Frequency 121.7 MHZ
Type RDR Name BAKU RADAR Frequency 120.8 MHZ
Type TWR Name BAKU TWR Frequency 119.2 MHZ

 AIRPORT NEAR NAVIGATION AIDS
Type NDB Name Baku Frequency 470 KHZ
Type NDB Name Baku Frequency 360 KHZ
Type NDB Name Baku Frequency 515 KHZ
Type VOR-DME Name Baku Frequency 114100 KHZ
Type NDB Name Nakhchivan Frequency 493 KHZ



2018 Air Astana Virtual Airline